Time;durP1;ratioP1;P1;durP2;ratioP2;P2;SDS_P1;SDS_P2;PMS_P1;PMS_P2;Temp;Humidity;BMP_temperature;BMP_pressure;BME280_temperature;BME280_humidity;BME280_pressure;Samples;Min_cycle;Max_cycle;Signal;HPM_P1;HPM_P2
2022/03/11 00:01:50;;;;;;;22.77;9.75;;;;;;;4.07;100.00;101667.25;5167705;28;20030;-79
2022/03/11 00:04:21;;;;;;;21.80;9.10;;;;;;;3.98;100.00;101674.03;5165773;28;20553;-79
2022/03/11 00:06:51;;;;;;;21.90;9.35;;;;;;;3.89;100.00;101669.34;5165227;28;20034;-79
2022/03/11 00:09:22;;;;;;;18.30;8.20;;;;;;;3.83;100.00;101664.44;5165752;28;20113;-79
2022/03/11 00:11:52;;;;;;;20.40;8.82;;;;;;;3.73;100.00;101664.22;5166875;28;20080;-79
2022/03/11 00:14:24;;;;;;;18.80;8.55;;;;;;;3.68;100.00;101666.31;5168690;28;20112;-79
2022/03/11 00:16:54;;;;;;;26.90;9.45;;;;;;;3.59;100.00;101657.16;5168560;28;20030;-79
2022/03/11 00:19:25;;;;;;;21.75;9.30;;;;;;;3.45;100.00;101662.50;5166590;28;20073;-78
2022/03/11 00:21:55;;;;;;;22.63;10.90;;;;;;;3.33;100.00;101650.06;5148463;28;20030;-78
2022/03/11 00:24:26;;;;;;;19.42;9.05;;;;;;;3.27;100.00;101646.00;5164288;28;20034;-78
2022/03/11 00:26:56;;;;;;;20.98;9.48;;;;;;;3.28;100.00;101641.56;5163742;28;20034;-77
2022/03/11 00:29:28;;;;;;;21.90;8.60;;;;;;;3.22;100.00;101641.97;5164090;28;20026;-78
2022/03/11 00:31:58;;;;;;;17.70;9.00;;;;;;;3.14;100.00;101645.09;5157391;28;20089;-77
2022/03/11 00:34:29;;;;;;;25.85;9.23;;;;;;;3.09;100.00;101642.75;5163957;28;20033;-77
2022/03/11 00:37:00;;;;;;;27.02;10.30;;;;;;;3.06;100.00;101642.06;5152987;28;20019;-78
2022/03/11 00:39:31;;;;;;;21.88;8.75;;;;;;;3.00;100.00;101637.16;5163390;28;20050;-77
2022/03/11 00:42:01;;;;;;;18.67;8.05;;;;;;;2.96;100.00;101633.88;5163386;28;20057;-77
2022/03/11 00:44:32;;;;;;;24.33;9.93;;;;;;;2.96;100.00;101633.88;5162969;28;20539;-78
2022/03/11 00:47:02;;;;;;;17.83;9.18;;;;;;;3.00;100.00;101630.06;5163096;28;20482;-78
2022/03/11 00:49:33;;;;;;;22.55;9.70;;;;;;;3.05;100.00;101638.56;5163306;28;20037;-78
2022/03/11 00:52:04;;;;;;;20.83;8.48;;;;;;;3.01;100.00;101628.25;5167446;28;20042;-77
2022/03/11 00:54:35;;;;;;;25.95;9.25;;;;;;;2.94;100.00;101622.50;5166758;28;20379;-78
2022/03/11 00:57:05;;;;;;;23.90;9.52;;;;;;;2.90;100.00;101626.31;5167004;28;20033;-78
2022/03/11 00:59:36;;;;;;;26.55;9.70;;;;;;;2.90;100.00;101615.69;5133583;28;20023;-78
2022/03/11 01:02:06;;;;;;;22.60;9.98;;;;;;;2.92;100.00;101619.13;5167103;28;20029;-78
2022/03/11 01:04:37;;;;;;;23.33;9.20;;;;;;;2.91;100.00;101620.03;5166840;28;20379;-78
2022/03/11 01:07:07;;;;;;;21.45;9.38;;;;;;;2.88;100.00;101609.66;5167111;28;20029;-78
2022/03/11 01:09:38;;;;;;;34.08;10.23;;;;;;;2.86;100.00;101606.25;5166958;28;20030;-78
2022/03/11 01:12:08;;;;;;;28.85;10.65;;;;;;;2.87;100.00;101597.38;5166837;28;20453;-78
2022/03/11 01:14:39;;;;;;;26.52;9.77;;;;;;;2.87;100.00;101596.50;5166618;28;20030;-78
2022/03/11 01:17:11;;;;;;;23.38;9.45;;;;;;;2.89;100.00;101591.97;5166967;28;20022;-78
2022/03/11 01:19:41;;;;;;;21.80;9.27;;;;;;;2.92;100.00;101597.06;5166650;28;20022;-78
2022/03/11 01:22:12;;;;;;;34.00;9.82;;;;;;;2.93;100.00;101583.72;5166745;28;20034;-78
2022/03/11 01:24:42;;;;;;;23.02;9.30;;;;;;;3.00;100.00;101576.19;5146961;28;20038;-78
2022/03/11 01:27:13;;;;;;;23.33;9.35;;;;;;;3.00;100.00;101570.91;5156223;28;20022;-78
2022/03/11 01:29:43;;;;;;;22.85;8.88;;;;;;;2.96;100.00;101574.69;5166691;28;20022;-78
2022/03/11 01:32:14;;;;;;;23.45;9.60;;;;;;;2.92;100.00;101582.00;5145228;28;20058;-78
2022/03/11 01:34:44;;;;;;;19.33;8.23;;;;;;;2.92;100.00;101559.97;5148176;28;20093;-78
2022/03/11 01:37:15;;;;;;;24.30;9.32;;;;;;;2.95;100.00;101565.03;5157914;28;20093;-78
2022/03/11 01:39:45;;;;;;;24.60;9.77;;;;;;;2.92;100.00;101563.47;5166242;28;20433;-78
2022/03/11 01:42:16;;;;;;;20.65;9.07;;;;;;;2.91;100.00;101555.59;5166366;28;20389;-78
2022/03/11 01:44:46;;;;;;;22.80;8.38;;;;;;;2.91;100.00;101560.88;5165719;28;20397;-78
2022/03/11 01:47:16;;;;;;;21.40;10.65;;;;;;;2.91;100.00;101556.44;5166158;28;20116;-78
2022/03/11 01:49:47;;;;;;;21.25;8.30;;;;;;;2.90;100.00;101557.38;5165977;28;20101;-78
2022/03/11 01:52:17;;;;;;;19.55;8.18;;;;;;;2.91;100.00;101555.59;5166065;28;20717;-78
2022/03/11 01:54:49;;;;;;;20.23;8.70;;;;;;;2.93;100.00;101551.06;5165571;28;20101;-78
2022/03/11 01:57:20;;;;;;;17.48;8.43;;;;;;;2.93;100.00;101551.91;5166321;28;20026;-78
2022/03/11 01:59:50;;;;;;;19.95;8.85;;;;;;;2.86;100.00;101542.63;5166023;28;20057;-78
2022/03/11 02:02:21;;;;;;;22.42;9.48;;;;;;;2.83;100.00;101541.03;5165667;28;20034;-78
2022/03/11 02:04:52;;;;;;;24.55;9.27;;;;;;;2.79;100.00;101539.53;5165727;28;20022;-78
2022/03/11 02:07:22;;;;;;;18.45;8.57;;;;;;;2.76;100.00;101539.75;5166079;28;20034;-77
2022/03/11 02:09:53;;;;;;;21.83;9.70;;;;;;;2.74;100.00;101530.19;5148699;28;20069;-78
2022/03/11 02:12:35;;;;;;;23.00;9.63;;;;;;;2.71;100.00;101527.72;5165800;28;20117;-77
2022/03/11 02:15:08;;;;;;;21.40;8.05;;;;;;;2.68;100.00;101520.84;5165271;28;20034;-78
2022/03/11 02:17:38;;;;;;;20.77;8.48;;;;;;;2.68;100.00;101515.53;5165755;28;20034;-78
2022/03/11 02:20:09;;;;;;;22.45;8.75;;;;;;;2.67;100.00;101524.44;5165449;28;20037;-78
2022/03/11 02:23:00;;;;;;;20.25;9.02;;;;;;;2.60;100.00;101515.19;5150915;28;20541;-78
2022/03/11 02:25:48;;;;;;;21.13;8.90;;;;;;;2.60;100.00;101518.66;5150321;28;20015;-78
2022/03/11 02:28:35;;;;;;;18.70;8.77;;;;;;;2.62;100.00;101515.94;5165897;28;20398;-78
2022/03/11 02:31:06;;;;;;;21.13;7.95;;;;;;;2.65;100.00;101509.59;5165528;28;20029;-83
2022/03/11 02:33:37;;;;;;;23.50;7.97;;;;;;;2.67;100.00;101510.34;5148474;28;20045;-77
2022/03/11 02:36:08;;;;;;;22.70;7.97;;;;;;;2.68;100.00;101504.94;5156014;28;20062;-78
2022/03/11 02:38:38;;;;;;;19.65;8.13;;;;;;;2.67;100.00;101510.34;5165506;28;20095;-77
2022/03/11 02:41:09;;;;;;;22.00;7.75;;;;;;;2.66;100.00;101506.84;5165029;28;20022;-78
2022/03/11 02:43:42;;;;;;;21.17;7.32;;;;;;;2.68;100.00;101504.09;5165461;28;20478;-78
2022/03/11 02:46:14;;;;;;;21.90;8.15;;;;;;;2.75;100.00;101498.28;5164573;28;20042;-78
2022/03/11 02:48:45;;;;;;;17.98;7.43;;;;;;;2.88;100.00;101494.84;5165140;28;20509;-78
2022/03/11 02:51:15;;;;;;;16.42;7.50;;;;;;;2.93;100.00;101498.03;5165092;28;20042;-78
2022/03/11 02:53:46;;;;;;;17.52;7.30;;;;;;;2.94;100.00;101490.00;5165770;28;20061;-77
2022/03/11 02:56:18;;;;;;;15.20;6.47;;;;;;;3.02;100.00;101500.94;5147107;28;20066;-77
2022/03/11 02:58:48;;;;;;;22.90;7.18;;;;;;;3.04;100.00;101484.94;5165074;28;20025;-78
2022/03/11 03:01:19;;;;;;;20.10;7.40;;;;;;;3.05;100.00;101491.91;5164801;28;20474;-78
2022/03/11 03:03:50;;;;;;;18.45;7.57;;;;;;;3.10;100.00;101487.16;5165013;28;20026;-77
2022/03/11 03:06:20;;;;;;;16.08;7.57;;;;;;;3.11;100.00;101483.56;5163764;28;20026;-78
2022/03/11 03:08:51;;;;;;;18.20;8.13;;;;;;;3.23;100.00;101479.25;5164618;28;20026;-78
2022/03/11 03:11:22;;;;;;;19.85;7.32;;;;;;;3.34;100.00;101472.25;5147031;28;20014;-77
2022/03/11 03:13:53;;;;;;;18.30;7.43;;;;;;;3.37;100.00;101468.56;5163890;28;20054;-77
2022/03/11 03:16:24;;;;;;;19.50;7.60;;;;;;;3.44;100.00;101472.47;5163911;28;20026;-77
2022/03/11 03:18:55;;;;;;;21.65;8.48;;;;;;;3.47;100.00;101472.28;5164357;28;20034;-77
2022/03/11 03:21:27;;;;;;;20.23;8.25;;;;;;;3.47;100.00;101466.13;5164198;28;20018;-77
2022/03/11 03:23:57;;;;;;;15.45;7.10;;;;;;;3.44;100.00;101468.97;5164508;28;20049;-77
2022/03/11 03:26:28;;;;;;;15.85;7.20;;;;;;;3.54;100.00;101468.25;5163868;28;20049;-77
2022/03/11 03:28:58;;;;;;;15.73;7.68;;;;;;;3.52;100.00;101464.84;5164497;28;20510;-77
2022/03/11 03:31:29;;;;;;;15.70;7.40;;;;;;;3.43;100.00;101469.94;5160948;28;20382;-77
2022/03/11 03:34:00;;;;;;;18.90;8.15;;;;;;;3.33;100.00;101464.41;5158725;28;20088;-77
2022/03/11 03:36:31;;;;;;;21.98;7.40;;;;;;;3.28;100.00;101459.41;5151826;28;20033;-77
2022/03/11 03:39:01;;;;;;;17.75;8.05;;;;;;;3.26;100.00;101464.00;5164222;28;20026;-78
2022/03/11 03:41:32;;;;;;;16.48;7.18;;;;;;;3.27;100.00;101460.38;5164038;28;20023;-77
2022/03/11 03:44:02;;;;;;;17.60;7.85;;;;;;;3.28;100.00;101459.41;5164188;28;20037;-77
2022/03/11 03:46:33;;;;;;;20.58;8.23;;;;;;;3.27;100.00;101462.19;5164012;28;20165;-77
2022/03/11 03:49:03;;;;;;;18.73;7.55;;;;;;;3.25;100.00;101461.41;5164358;28;20038;-77
2022/03/11 03:51:34;;;;;;;17.75;8.20;;;;;;;3.21;100.00;101462.56;5163819;28;20423;-77
2022/03/11 03:54:09;;;;;;;15.35;7.53;;;;;;;3.18;100.00;101460.16;5163940;28;20034;-77
2022/03/11 03:56:40;;;;;;;;;;;;;;;3.10;100.00;101464.16;5164865;28;20061;-77
2022/03/11 03:59:12;;;;;;;17.27;7.40;;;;;;;3.04;100.00;101466.38;5147133;28;19910;-77
2022/03/11 04:01:44;;;;;;;17.67;6.97;;;;;;;3.03;100.00;101465.53;5146391;28;20057;-77
2022/03/11 04:04:14;;;;;;;17.95;7.35;;;;;;;3.11;100.00;101457.91;5163284;28;20393;-77
2022/03/11 04:06:44;;;;;;;17.52;8.40;;;;;;;3.27;100.00;101451.56;5163660;28;20022;-77
2022/03/11 04:09:15;;;;;;;18.10;7.25;;;;;;;3.46;100.00;101453.78;5163550;28;20022;-77
2022/03/11 04:11:45;;;;;;;15.63;7.50;;;;;;;3.56;100.00;101449.56;5163695;28;20059;-77
2022/03/11 04:14:16;;;;;;;17.13;8.00;;;;;;;3.72;100.00;101446.72;5145780;28;20026;-77
2022/03/11 04:16:46;;;;;;;15.80;7.40;;;;;;;3.80;100.00;101447.00;5163767;28;20029;-77
2022/03/11 04:19:17;;;;;;;18.90;7.70;;;;;;;3.83;100.00;101447.63;5163429;28;20101;-77
2022/03/11 04:21:47;;;;;;;19.65;6.90;;;;;;;3.85;100.00;101451.03;5163519;28;20606;-77
2022/03/11 04:24:18;;;;;;;18.88;7.18;;;;;;;3.80;100.00;101447.84;5164379;28;20117;-77
2022/03/11 04:26:49;;;;;;;17.50;7.57;;;;;;;3.74;100.00;101450.09;5150562;28;20099;-77
2022/03/11 04:29:19;;;;;;;14.85;7.05;;;;;;;3.71;100.00;101437.88;5167631;28;20271;-78
2022/03/11 04:31:50;;;;;;;18.13;7.47;;;;;;;3.69;100.00;101439.78;5161608;28;20057;-77
2022/03/11 04:34:21;;;;;;;21.30;7.80;;;;;;;3.68;100.00;101430.13;5163784;28;20492;-77
2022/03/11 04:36:51;;;;;;;18.55;7.28;;;;;;;3.64;100.00;101432.16;5156490;28;20482;-77
2022/03/11 04:39:26;;;;;;;17.98;8.02;;;;;;;3.65;100.00;101433.00;5167406;28;20077;-77
2022/03/11 04:41:57;;;;;;;14.75;6.88;;;;;;;3.65;100.00;101430.34;5150413;28;20040;-77
2022/03/11 04:44:27;;;;;;;18.70;7.40;;;;;;;3.57;100.00;101436.19;5166712;28;20038;-77
2022/03/11 04:46:58;;;;;;;14.10;7.00;;;;;;;3.45;100.00;101439.69;5167294;28;20050;-78
2022/03/11 04:49:28;;;;;;;15.18;7.32;;;;;;;3.35;100.00;101434.16;5167127;28;20028;-78
2022/03/11 04:51:59;;;;;;;20.80;7.72;;;;;;;3.27;100.00;101433.84;5167190;28;20050;-77
2022/03/11 04:54:29;;;;;;;15.77;7.43;;;;;;;3.17;100.00;101439.91;5167325;28;20027;-77
2022/03/11 04:57:00;;;;;;;20.08;8.60;;;;;;;3.08;100.00;101438.72;5167098;28;20030;-77
2022/03/11 04:59:30;;;;;;;21.98;8.35;;;;;;;2.98;100.00;101453.53;5167137;28;20022;-78
2022/03/11 05:02:01;;;;;;;20.40;8.80;;;;;;;2.85;100.00;101437.59;5166933;28;20109;-77
2022/03/11 05:04:31;;;;;;;20.17;7.68;;;;;;;2.83;100.00;101436.84;5166697;28;20062;-77
2022/03/11 05:07:02;;;;;;;18.27;7.70;;;;;;;2.87;100.00;101434.84;5167075;28;20501;-78
2022/03/11 05:09:33;;;;;;;15.90;6.40;;;;;;;2.89;100.00;101433.78;5166846;28;20030;-77
2022/03/11 05:12:04;;;;;;;15.80;6.80;;;;;;;2.89;100.00;101435.59;5166956;28;20054;-77
2022/03/11 05:14:34;;;;;;;18.45;7.22;;;;;;;2.85;100.00;101425.19;5166514;28;20061;-77
2022/03/11 05:17:05;;;;;;;15.88;7.80;;;;;;;2.88;100.00;101426.78;5166989;28;20028;-77
2022/03/11 05:19:35;;;;;;;15.90;7.03;;;;;;;2.89;100.00;101417.88;5166987;28;20057;-77
2022/03/11 05:22:06;;;;;;;15.25;6.97;;;;;;;2.92;100.00;101422.16;5166500;28;20393;-78
2022/03/11 05:24:37;;;;;;;20.95;7.43;;;;;;;2.90;100.00;101419.56;5166424;28;20029;-77
2022/03/11 05:27:07;;;;;;;19.02;7.63;;;;;;;2.85;100.00;101421.69;5166929;28;20022;-77
2022/03/11 05:29:38;;;;;;;17.17;7.70;;;;;;;2.75;100.00;101424.09;5166341;28;20110;-77
2022/03/11 05:32:09;;;;;;;18.25;7.43;;;;;;;2.68;100.00;101419.31;5158241;28;20474;-77
2022/03/11 05:34:40;;;;;;;20.23;7.38;;;;;;;2.60;100.00;101411.88;5162958;28;20245;-77
2022/03/11 05:37:11;;;;;;;19.50;7.13;;;;;;;2.55;100.00;101417.47;5156844;28;20085;-77
2022/03/11 05:39:42;;;;;;;13.82;6.70;;;;;;;2.54;100.00;101412.28;5166428;28;20026;-77
2022/03/11 05:42:12;;;;;;;15.88;7.43;;;;;;;2.55;100.00;101413.97;5166413;28;20113;-80
2022/03/11 05:44:42;;;;;;;16.17;7.15;;;;;;;2.55;100.00;101419.25;5151359;28;20061;-79
2022/03/11 05:47:13;;;;;;;19.13;7.68;;;;;;;2.60;100.00;101418.00;5137896;28;20030;-81
2022/03/11 05:49:43;;;;;;;20.13;7.45;;;;;;;2.60;100.00;101415.34;5171182;28;20014;-80
2022/03/11 05:52:14;;;;;;;18.95;7.75;;;;;;;2.59;100.00;101413.66;5167332;28;20022;-78
2022/03/11 05:54:44;;;;;;;24.23;8.45;;;;;;;2.55;100.00;101416.63;5166139;28;20026;-75
2022/03/11 05:57:15;;;;;;;26.67;7.43;;;;;;;2.52;100.00;101411.53;5165977;28;20034;-75
2022/03/11 05:59:46;;;;;;;16.13;7.68;;;;;;;2.51;100.00;101413.34;5166267;28;20363;-75
2022/03/11 06:02:16;;;;;;;16.35;7.32;;;;;;;2.55;100.00;101414.81;5166224;28;20026;-76
2022/03/11 06:04:47;;;;;;;17.83;6.90;;;;;;;2.59;100.00;101403.06;5165672;28;20026;-76
2022/03/11 06:07:17;;;;;;;17.25;7.50;;;;;;;2.64;100.00;101397.47;5165887;28;20022;-76
2022/03/11 06:09:48;;;;;;;16.40;7.65;;;;;;;2.68;100.00;101404.28;5165540;28;20080;-77
2022/03/11 06:12:21;;;;;;;22.17;8.02;;;;;;;2.69;100.00;101405.13;5165880;28;20103;-76
2022/03/11 06:14:51;;;;;;;18.88;7.65;;;;;;;2.69;100.00;101405.97;5165221;28;20033;-77
2022/03/11 06:17:21;;;;;;;16.77;7.78;;;;;;;2.71;100.00;101398.78;5165732;28;20026;-77
2022/03/11 06:19:52;;;;;;;21.30;8.50;;;;;;;2.73;100.00;101410.13;5166307;28;20061;-77
2022/03/11 06:22:23;;;;;;;22.25;9.20;;;;;;;2.74;100.00;101397.72;5165416;28;20413;-76
2022/03/11 06:24:53;;;;;;;20.45;7.85;;;;;;;2.79;100.00;101396.44;5165032;28;20482;-76
2022/03/11 06:27:24;;;;;;;22.23;7.78;;;;;;;2.95;100.00;101398.06;5165728;28;20058;-74
2022/03/11 06:29:54;;;;;;;17.33;6.88;;;;;;;3.10;100.00;101395.22;5165365;28;20057;-75
2022/03/11 06:32:25;;;;;;;18.50;7.50;;;;;;;3.25;100.00;101395.97;5155016;28;20035;-76
2022/03/11 06:34:55;;;;;;;18.13;8.25;;;;;;;3.44;100.00;101392.06;5161462;28;20525;-75
2022/03/11 06:37:26;;;;;;;19.15;8.65;;;;;;;3.62;100.00;101399.59;5158609;28;20325;-75
2022/03/11 06:39:56;;;;;;;20.58;8.43;;;;;;;3.80;100.00;101400.06;5165245;28;20022;-75
2022/03/11 06:42:34;;;;;;;16.52;8.30;;;;;;;4.23;100.00;101391.69;5165562;28;20084;-75
2022/03/11 06:45:06;;;;;;;17.42;8.00;;;;;;;4.59;100.00;101390.75;5164563;28;20101;-75
2022/03/11 06:47:36;;;;;;;18.90;8.40;;;;;;;4.92;100.00;101384.72;5164951;28;20026;-75
2022/03/11 06:50:08;;;;;;;19.52;8.27;;;;;;;5.17;100.00;101390.81;5164857;28;20065;-75
2022/03/11 06:52:38;;;;;;;25.02;8.50;;;;;;;5.47;100.00;101395.56;5165320;28;20046;-75
2022/03/11 06:55:09;;;;;;;20.55;8.57;;;;;;;5.99;100.00;101395.97;5165030;28;20029;-75
2022/03/11 06:57:40;;;;;;;20.27;8.55;;;;;;;6.55;100.00;101393.16;5166931;28;20113;-75
2022/03/11 07:00:12;;;;;;;19.75;8.00;;;;;;;6.98;99.57;101391.28;5165509;28;20032;-75
2022/03/11 07:02:43;;;;;;;16.38;7.97;;;;;;;7.45;94.64;101389.00;5165158;28;20026;-75
2022/03/11 07:05:14;;;;;;;17.58;8.23;;;;;;;7.76;90.34;101391.69;5164430;28;20102;-75
2022/03/11 07:07:45;;;;;;;16.63;8.23;;;;;;;7.97;88.88;101391.59;5164907;28;20034;-76
2022/03/11 07:10:16;;;;;;;19.35;8.20;;;;;;;7.90;86.91;101393.97;5164394;28;20347;-75
2022/03/11 07:12:47;;;;;;;18.00;8.75;;;;;;;7.83;89.83;101387.50;5164632;28;20113;-75
2022/03/11 07:15:17;;;;;;;14.40;8.15;;;;;;;8.11;87.54;101388.56;5164090;28;20114;-75
2022/03/11 07:17:49;;;;;;;21.27;9.35;;;;;;;8.29;86.38;101381.56;5164242;28;20394;-75
2022/03/11 07:20:19;;;;;;;17.40;8.52;;;;;;;8.44;83.23;101386.56;5156260;28;20037;-75
2022/03/11 07:22:50;;;;;;;19.38;9.13;;;;;;;8.78;82.13;101387.81;5163252;28;20033;-76
2022/03/11 07:25:20;;;;;;;17.30;8.52;;;;;;;8.93;79.46;101384.69;5162659;28;20029;-75
2022/03/11 07:27:52;;;;;;;16.40;8.93;;;;;;;9.16;77.23;101387.91;5163331;28;20073;-75
2022/03/11 07:30:22;;;;;;;18.58;8.32;;;;;;;9.38;77.85;101387.56;5162660;28;20110;-75
2022/03/11 07:32:53;;;;;;;14.85;7.78;;;;;;;9.54;75.54;101379.78;5151125;28;20141;-75
2022/03/11 07:35:23;;;;;;;15.40;8.13;;;;;;;9.82;73.76;101387.84;5156613;28;20130;-76
2022/03/11 07:37:54;;;;;;;17.13;9.02;;;;;;;10.04;71.85;101378.53;5159690;28;20778;-76
2022/03/11 07:40:24;;;;;;;17.63;8.43;;;;;;;10.17;70.88;101371.00;5162622;28;20026;-75
2022/03/11 07:42:55;;;;;;;19.10;9.10;;;;;;;10.21;70.12;101371.56;5162872;28;20109;-75
2022/03/11 07:45:25;;;;;;;20.40;9.15;;;;;;;10.22;69.06;101376.75;5162276;28;20042;-75
2022/03/11 07:47:56;;;;;;;18.33;8.52;;;;;;;10.10;67.38;101368.09;5145469;28;20045;-75
2022/03/11 07:50:27;;;;;;;16.92;8.70;;;;;;;10.32;67.09;101363.31;5162611;28;20415;-75
2022/03/11 07:52:57;;;;;;;15.57;7.70;;;;;;;10.20;68.07;101368.03;5162865;28;20034;-75
2022/03/11 07:55:28;;;;;;;15.75;8.60;;;;;;;10.50;69.73;101372.22;5144839;28;20119;-75
2022/03/11 07:57:59;;;;;;;13.98;8.23;;;;;;;10.74;69.50;101365.38;5163890;28;20041;-75
2022/03/11 08:00:29;;;;;;;17.17;7.80;;;;;;;10.94;65.79;101361.50;5163639;28;20030;-75
2022/03/11 08:03:00;;;;;;;15.27;8.15;;;;;;;10.94;64.79;101360.66;5164922;28;20410;-75
2022/03/11 08:05:31;;;;;;;22.75;8.07;;;;;;;11.39;66.61;101355.09;5164058;28;20530;-77
2022/03/11 08:08:01;;;;;;;18.35;7.85;;;;;;;11.28;65.75;101352.69;5163979;28;20106;-77
2022/03/11 08:10:33;;;;;;;17.40;8.18;;;;;;;11.29;66.74;101344.47;5162039;28;20049;-77
2022/03/11 08:13:06;;;;;;;18.13;8.23;;;;;;;11.27;65.29;101351.00;5162734;28;20026;-77
2022/03/11 08:15:36;;;;;;;16.73;8.48;;;;;;;11.17;68.67;101345.75;5161654;28;20116;-77
2022/03/11 08:18:07;;;;;;;20.88;8.02;;;;;;;10.83;65.93;101338.44;5162137;28;20478;-77
2022/03/11 08:20:37;;;;;;;16.25;8.07;;;;;;;10.66;68.17;101339.34;5145749;28;20018;-77
2022/03/11 08:23:08;;;;;;;16.83;8.63;;;;;;;10.98;70.56;101337.88;5172657;28;20037;-82
2022/03/11 08:25:39;;;;;;;19.95;9.23;;;;;;;11.34;68.20;101339.47;5151143;28;20018;-78
2022/03/11 08:28:10;;;;;;;14.88;8.43;;;;;;;11.19;70.93;101334.84;5144757;28;20430;-78
2022/03/11 08:30:41;;;;;;;18.90;7.57;;;;;;;11.27;69.42;101326.84;5168621;28;20018;-78
2022/03/11 08:33:12;;;;;;;17.60;8.60;;;;;;;11.55;68.07;101330.19;5150770;28;20097;-78
2022/03/11 08:35:42;;;;;;;16.50;8.85;;;;;;;11.49;69.54;101318.22;5153337;28;20030;-78
2022/03/11 08:38:12;;;;;;;17.33;8.40;;;;;;;11.55;70.95;101322.97;5161263;28;20065;-78
2022/03/11 08:40:44;;;;;;;17.35;7.90;;;;;;;11.77;69.13;101326.91;5161977;28;20025;-78
2022/03/11 08:43:14;;;;;;;15.07;8.07;;;;;;;11.55;68.87;101320.28;5162459;28;20525;-78
2022/03/11 08:45:45;;;;;;;16.33;8.85;;;;;;;11.66;68.49;101335.28;5161627;28;20114;-79
2022/03/11 08:48:15;;;;;;;14.48;7.68;;;;;;;12.14;72.32;101329.22;5162007;28;20030;-78
2022/03/11 08:50:45;;;;;;;18.80;7.78;;;;;;;12.19;70.81;101331.44;5162172;28;20444;-78
2022/03/11 08:53:18;;;;;;;16.20;7.65;;;;;;;12.12;69.02;101325.88;5162286;28;20505;-79
2022/03/11 08:55:49;;;;;;;17.40;8.07;;;;;;;11.87;72.96;101318.75;5161582;28;20027;-78
2022/03/11 08:58:20;;;;;;;14.73;7.60;;;;;;;12.25;69.89;101311.09;5161915;28;20026;-78
2022/03/11 09:00:50;;;;;;;16.92;8.35;;;;;;;11.99;73.45;101309.34;5162061;28;20426;-77
2022/03/11 09:03:21;;;;;;;13.25;7.60;;;;;;;12.00;71.92;101311.06;5162181;28;20033;-78
2022/03/11 09:05:51;;;;;;;14.95;7.68;;;;;;;12.16;73.32;101297.66;5161413;28;20062;-78
2022/03/11 09:08:22;;;;;;;16.10;7.93;;;;;;;12.31;73.53;101313.13;5161717;28;20034;-78
2022/03/11 09:10:52;;;;;;;14.18;7.15;;;;;;;12.46;71.65;101310.63;5163128;28;20053;-80
2022/03/11 09:13:23;;;;;;;19.08;8.10;;;;;;;12.18;71.89;101308.22;5152822;28;20113;-78
2022/03/11 09:15:53;;;;;;;17.30;7.50;;;;;;;12.16;74.36;101305.72;5147932;28;20029;-78
2022/03/11 09:18:23;;;;;;;16.30;7.57;;;;;;;12.69;74.15;101299.00;5165571;28;20097;-77
2022/03/11 09:20:55;;;;;;;15.30;7.38;;;;;;;12.72;78.22;101305.91;5148162;28;20020;-77
2022/03/11 09:23:25;;;;;;;17.00;7.30;;;;;;;12.64;75.98;101305.91;5148082;28;20077;-77
2022/03/11 09:25:55;;;;;;;15.68;7.35;;;;;;;12.70;73.71;101310.59;5164792;28;20026;-77
2022/03/11 09:28:26;;;;;;;14.23;7.45;;;;;;;12.63;76.62;101302.38;5165322;28;20076;-77
2022/03/11 09:30:57;;;;;;;16.58;7.30;;;;;;;12.89;75.60;101304.03;5165060;28;20092;-77
2022/03/11 09:33:28;;;;;;;18.85;7.05;;;;;;;12.83;75.00;101302.88;5153755;28;20077;-77
2022/03/11 09:35:58;;;;;;;13.07;7.05;;;;;;;12.81;74.35;101298.69;5155914;28;20394;-77
2022/03/11 09:38:29;;;;;;;15.55;7.43;;;;;;;12.59;76.95;101297.50;5165311;28;20431;-77
2022/03/11 09:41:02;;;;;;;15.90;6.85;;;;;;;12.64;74.84;101290.59;5164993;28;20558;-77
2022/03/11 09:43:32;;;;;;;12.30;6.63;;;;;;;12.90;76.71;101278.78;5166193;28;20030;-77
2022/03/11 09:46:04;;;;;;;18.85;8.07;;;;;;;13.11;76.19;101278.25;5164553;28;20041;-78
2022/03/11 09:48:35;;;;;;;14.30;7.13;;;;;;;13.02;74.82;101280.13;5164742;28;20504;-77
2022/03/11 09:51:05;;;;;;;17.38;7.18;;;;;;;13.05;75.33;101266.34;5164705;28;20022;-78
2022/03/11 09:53:36;;;;;;;14.68;7.18;;;;;;;13.16;74.35;101273.19;5165113;28;20038;-78
2022/03/11 09:56:06;;;;;;;14.50;7.03;;;;;;;13.17;80.08;101264.94;5152034;28;20069;-78
2022/03/11 09:58:37;;;;;;;24.92;7.53;;;;;;;13.14;77.31;101261.75;5165019;28;20041;-78
2022/03/11 10:01:07;;;;;;;13.77;6.82;;;;;;;13.30;75.26;101260.88;5164592;28;20113;-77
2022/03/11 10:03:38;;;;;;;13.43;6.10;;;;;;;13.40;78.14;101256.13;5147402;28;20117;-77
2022/03/11 10:06:08;;;;;;;18.98;7.93;;;;;;;13.86;76.56;101254.38;5164138;28;20027;-78
2022/03/11 10:08:44;;;;;;;15.25;7.10;;;;;;;13.68;74.80;101249.25;5147202;28;20041;-78
2022/03/11 10:11:35;;;;;;;14.68;6.63;;;;;;;13.54;76.21;101262.63;5164365;28;20065;-78
2022/03/11 10:14:07;;;;;;;11.90;6.80;;;;;;;13.70;74.78;101257.16;5164176;28;20037;-78
2022/03/11 10:16:41;;;;;;;11.75;7.13;;;;;;;13.47;76.39;101249.88;5164028;28;20034;-78
2022/03/11 10:19:13;;;;;;;11.35;6.70;;;;;;;13.94;79.40;101245.38;5164158;28;20038;-78
2022/03/11 10:21:45;;;;;;;14.93;6.43;;;;;;;14.03;74.77;101243.50;5146697;28;20027;-78
2022/03/11 10:24:18;;;;;;;12.38;7.15;;;;;;;13.99;75.44;101249.22;5164051;28;20152;-78
2022/03/11 10:26:51;;;;;;;14.45;6.70;;;;;;;13.76;78.28;101232.22;5164220;28;20084;-78
2022/03/11 10:29:24;;;;;;;15.60;6.82;;;;;;;13.69;78.12;101228.53;5146384;28;20091;-78
2022/03/11 10:31:56;;;;;;;10.95;6.63;;;;;;;13.89;78.01;101226.22;5164073;28;20660;-77
2022/03/11 10:35:08;;;;;;;14.82;6.82;;;;;;;13.84;78.74;101217.81;5165320;28;20026;-77
2022/03/11 10:37:38;;;;;;;13.60;6.72;;;;;;;14.03;80.21;101211.13;5158260;28;20105;-77
2022/03/11 10:40:10;;;;;;;15.00;6.80;;;;;;;13.77;80.87;101204.22;5146267;28;20397;-78
2022/03/11 10:42:42;;;;;;;15.18;6.47;;;;;;;14.07;83.35;101205.19;5164011;28;20069;-78
2022/03/11 10:45:14;;;;;;;12.95;6.88;;;;;;;13.87;83.24;101207.53;5163463;28;20018;-78
2022/03/11 10:47:46;;;;;;;11.90;6.57;;;;;;;13.68;88.04;101208.81;5163932;28;20030;-78
2022/03/11 10:50:17;;;;;;;13.15;6.70;;;;;;;13.81;87.08;101200.16;5163644;28;20038;-78
2022/03/11 10:52:49;;;;;;;17.05;6.72;;;;;;;13.62;87.65;101203.31;5164082;28;20050;-78
2022/03/11 10:55:23;;;;;;;13.07;6.70;;;;;;;13.61;88.51;101199.78;5163218;28;20088;-78
2022/03/11 10:57:57;;;;;;;18.92;6.85;;;;;;;13.67;88.73;101187.44;5146470;28;20089;-78
2022/03/11 11:00:32;;;;;;;12.82;6.35;;;;;;;14.06;88.18;101186.50;5163241;28;20264;-77
2022/03/11 11:03:04;;;;;;;;;;;;;;;14.18;96.04;101183.16;5164272;28;20458;-77
2022/03/11 11:05:36;;;;;;;14.02;5.93;;;;;;;14.33;92.13;101188.59;5145492;28;19913;-78
2022/03/11 11:08:07;;;;;;;10.85;5.90;;;;;;;14.52;91.92;101171.09;5163496;28;20390;-78
2022/03/11 11:10:38;;;;;;;11.43;5.82;;;;;;;14.43;89.86;101175.69;5163057;28;20031;-78
2022/03/11 11:13:09;;;;;;;15.43;6.18;;;;;;;14.65;90.54;101178.53;5163691;28;20034;-78
2022/03/11 11:15:41;;;;;;;15.38;6.53;;;;;;;14.73;87.53;101182.00;5162684;28;20390;-78
2022/03/11 11:18:13;;;;;;;10.73;6.15;;;;;;;14.55;89.47;101180.66;5162816;28;20498;-77
2022/03/11 11:20:47;;;;;;;12.02;6.95;;;;;;;14.60;88.01;101179.09;5163161;28;20022;-78
2022/03/11 11:23:18;;;;;;;9.93;5.70;;;;;;;14.61;88.69;101177.22;5145853;28;20026;-78
2022/03/11 11:25:50;;;;;;;13.40;6.40;;;;;;;14.58;90.89;101167.66;5162703;28;20029;-78
2022/03/11 11:28:23;;;;;;;11.82;6.30;;;;;;;14.73;86.79;101162.25;5162874;28;20026;-78
2022/03/11 11:30:55;;;;;;;12.57;6.18;;;;;;;15.07;90.28;101156.28;5162826;28;20089;-78
2022/03/11 11:33:25;;;;;;;11.15;5.97;;;;;;;15.17;88.35;101150.59;5151382;28;20069;-78
2022/03/11 11:36:01;;;;;;;13.18;6.63;;;;;;;14.90;85.22;101152.94;5154033;28;20066;-78